Terminal Aerodrome Forecast
Issued by NWS

Home | Current Version | Previous Version | Text Only | Print | Product List | Glossary On
Versions: 1 2 3 4 5 6 7 8 9 10 11 12 13 14
000
FTUS43 KDTX 312321
TAFDET
TAF
KDET 312321Z 0100/0124 28012G20KT P6SM FEW070
     FM010100 27006KT P6SM SKC
     FM011600 27013G20KT P6SM SCT060=

USA.gov is the U.S. government's official web portal to all federal, state and local government web resources and services.